Time;durP1;ratioP1;P1;durP2;ratioP2;P2;SDS_P1;SDS_P2;PMS_P1;PMS_P2;Temp;Humidity;BMP_temperature;BMP_pressure;BME280_temperature;BME280_humidity;BME280_pressure;Samples;Min_cycle;Max_cycle;Signal;HPM_P1;HPM_P2
2022/06/12 00:03:07;;;;;;;11.90;7.30;;;;;;;14.98;100.00;100333.25;105819;1265;73780;-76
2022/06/12 00:05:57;;;;;;;14.60;7.50;;;;;;;14.96;100.00;100329.48;105343;1265;67541;-76
2022/06/12 00:08:43;;;;;;;12.50;7.70;;;;;;;14.93;100.00;100329.36;105219;1265;74737;-76
2022/06/12 00:11:34;;;;;;;14.30;8.00;;;;;;;14.91;100.00;100326.39;105442;1265;60524;-76
2022/06/12 00:14:21;;;;;;;15.40;8.80;;;;;;;14.88;100.00;100327.35;105609;1265;61345;-76
2022/06/12 00:17:08;;;;;;;14.40;8.00;;;;;;;14.86;100.00;100325.78;105377;1265;74947;-77
2022/06/12 00:19:55;;;;;;;13.80;7.30;;;;;;;14.85;100.00;100321.42;105420;1265;69105;-77
2022/06/12 00:22:43;;;;;;;14.70;8.10;;;;;;;14.86;100.00;100323.63;105402;1265;73766;-75
2022/06/12 00:25:30;;;;;;;17.40;8.40;;;;;;;14.87;100.00;100322.62;105336;1265;59910;-75
2022/06/12 00:28:17;;;;;;;13.60;8.00;;;;;;;14.88;100.00;100326.08;105249;1265;62023;-76
2022/06/12 00:31:03;;;;;;;14.50;8.60;;;;;;;14.90;100.00;100324.20;105684;1265;73717;-76
2022/06/12 00:33:50;;;;;;;15.60;8.10;;;;;;;14.88;100.00;100327.88;105767;1265;68466;-76
2022/06/12 00:36:37;;;;;;;15.20;8.30;;;;;;;14.89;100.00;100326.90;105651;1265;73615;-76
2022/06/12 00:39:26;;;;;;;16.30;8.80;;;;;;;14.90;100.00;100327.58;105512;1264;59816;-76
2022/06/12 00:42:26;;;;;;;17.40;9.80;;;;;;;14.89;100.00;100324.60;105365;1265;61184;-77
2022/06/12 00:45:59;;;;;;;15.10;9.60;;;;;;;14.89;100.00;100326.94;105454;1265;72457;-75
2022/06/12 00:48:47;;;;;;;17.60;9.00;;;;;;;14.86;100.00;100325.55;105054;1273;68547;-76
2022/06/12 00:51:34;;;;;;;14.80;8.70;;;;;;;14.85;100.00;100320.67;105628;1273;73452;-76
2022/06/12 00:54:22;;;;;;;16.10;8.80;;;;;;;14.84;100.00;100321.69;105854;1273;61379;-77
2022/06/12 00:57:10;;;;;;;15.30;9.20;;;;;;;14.81;100.00;100320.65;105853;1274;59580;-76
2022/06/12 01:00:05;;;;;;;14.50;9.00;;;;;;;14.80;100.00;100318.29;106412;1273;72417;-76
2022/06/12 01:02:58;;;;;;;15.10;9.10;;;;;;;14.77;100.00;100312.46;105558;1273;69616;-77
2022/06/12 01:08:51;;;;;;;15.60;9.60;;;;;;;14.73;100.00;100309.59;104908;1273;59832;-76
2022/06/12 01:11:42;;;;;;;14.10;9.00;;;;;;;14.71;100.00;100306.23;104718;1273;59638;-76
2022/06/12 01:14:41;;;;;;;14.70;9.70;;;;;;;14.69;100.00;100308.73;104771;1274;74545;-75
2022/06/12 01:17:29;;;;;;;13.40;8.80;;;;;;;14.67;100.00;100307.02;104782;1273;68525;-75
2022/06/12 01:20:24;;;;;;;15.20;9.60;;;;;;;14.65;100.00;100307.33;104767;1273;72297;-75
2022/06/12 01:23:49;;;;;;;15.90;9.90;;;;;;;14.62;100.00;100305.04;105043;1267;59553;-77
2022/06/12 01:27:00;;;;;;;17.90;10.00;;;;;;;14.60;100.00;100299.65;105320;1268;60519;-76
2022/06/12 01:30:14;;;;;;;13.50;9.10;;;;;;;14.60;100.00;100295.79;105550;1265;73471;-76
2022/06/12 01:33:06;;;;;;;12.90;8.80;;;;;;;14.58;100.00;100295.04;105341;1265;68528;-75
2022/06/12 01:36:07;;;;;;;14.40;8.30;;;;;;;14.57;100.00;100291.92;105320;1265;71900;-76
2022/06/12 01:39:30;;;;;;;12.60;8.50;;;;;;;14.57;100.00;100289.11;105226;1268;59822;-78
2022/06/12 01:42:34;;;;;;;13.00;8.50;;;;;;;14.55;100.00;100292.41;105465;1265;61003;-74
2022/06/12 01:45:49;;;;;;;16.20;9.20;;;;;;;14.54;100.00;100290.92;105571;1265;74805;-73
2022/06/12 01:49:10;;;;;;;14.10;8.50;;;;;;;14.52;100.00;100292.92;105229;1265;66711;-73
2022/06/12 01:52:30;;;;;;;13.60;8.70;;;;;;;14.50;100.00;100299.35;105545;1265;73752;-73
2022/06/12 01:55:40;;;;;;;18.90;9.20;;;;;;;14.48;100.00;100303.78;105240;1265;59778;-72
2022/06/12 01:58:45;;;;;;;13.90;8.80;;;;;;;14.46;100.00;100305.20;105283;1265;62200;-71
2022/06/12 02:02:01;;;;;;;14.20;9.20;;;;;;;14.45;100.00;100303.88;105200;1265;73646;-76
2022/06/12 02:05:14;;;;;;;16.10;9.50;;;;;;;14.43;100.00;100299.80;105438;1265;68451;-76
2022/06/12 02:08:11;;;;;;;14.90;8.20;;;;;;;14.41;100.00;100292.66;105553;1265;72974;-77
2022/06/12 02:14:39;;;;;;;14.80;8.90;;;;;;;14.37;100.00;100296.63;105285;1265;62102;-74
2022/06/12 02:17:40;;;;;;;14.50;8.60;;;;;;;14.35;100.00;100294.59;105191;1265;72993;-76
2022/06/12 02:20:40;;;;;;;13.60;8.80;;;;;;;14.34;100.00;100290.67;105199;1265;67902;-74
2022/06/12 02:23:53;;;;;;;12.50;8.10;;;;;;;14.29;100.00;100289.79;105220;1265;74568;-74
2022/06/12 02:27:00;;;;;;;15.50;9.50;;;;;;;14.30;100.00;100297.73;105557;1265;61543;-76
2022/06/12 02:30:15;;;;;;;12.40;7.80;;;;;;;14.27;100.00;100298.73;105123;1268;59649;-75
2022/06/12 02:33:12;;;;;;;14.10;9.50;;;;;;;14.25;100.00;100300.13;105382;1270;72938;-77
2022/06/12 02:36:10;;;;;;;14.60;8.70;;;;;;;14.24;100.00;100298.61;105440;1268;66664;-74
2022/06/12 02:39:26;;;;;;;11.80;7.40;;;;;;;14.21;100.00;100297.98;105039;1268;74302;-73
2022/06/12 02:42:23;;;;;;;14.90;8.80;;;;;;;14.19;100.00;100303.89;105091;1268;61395;-78
2022/06/12 02:46:01;;;;;;;14.50;9.00;;;;;;;14.17;100.00;100304.67;105147;1268;60503;-77
2022/06/12 02:48:48;;;;;;;13.70;8.50;;;;;;;14.12;100.00;100303.79;105116;1273;74734;-77
2022/06/12 02:51:40;;;;;;;16.60;8.50;;;;;;;14.10;100.00;100313.43;105114;1273;68515;-77
2022/06/12 02:54:48;;;;;;;14.50;8.40;;;;;;;14.07;100.00;100312.42;105173;1273;73552;-76
2022/06/12 02:57:51;;;;;;;12.30;7.50;;;;;;;14.04;100.00;100315.77;104955;1273;59814;-74
2022/06/12 03:01:03;;;;;;;15.10;7.60;;;;;;;14.01;100.00;100314.77;104865;1273;61723;-75
2022/06/12 03:04:14;;;;;;;13.90;8.60;;;;;;;13.93;100.00;100310.14;104931;1273;74547;-77
2022/06/12 03:07:01;;;;;;;14.70;7.90;;;;;;;13.95;100.00;100317.45;104419;1277;69629;-75
2022/06/12 03:09:47;;;;;;;14.30;7.70;;;;;;;13.92;100.00;100315.33;104584;1276;74757;-75
2022/06/12 03:12:34;;;;;;;15.50;8.60;;;;;;;13.91;100.00;100311.02;104753;1276;59786;-73
2022/06/12 03:15:36;;;;;;;14.00;7.70;;;;;;;13.89;100.00;100309.79;105160;1276;60328;-76
2022/06/12 03:18:31;;;;;;;15.20;8.10;;;;;;;13.87;100.00;100313.48;104610;1277;73024;-77
2022/06/12 03:21:27;;;;;;;17.40;7.90;;;;;;;13.87;100.00;100313.16;104450;1277;66772;-76
2022/06/12 03:24:49;;;;;;;15.80;7.60;;;;;;;13.86;100.00;100315.34;104818;1273;71665;-76
2022/06/12 03:28:11;;;;;;;11.30;6.40;;;;;;;13.86;100.00;100314.42;105012;1271;59699;-75
2022/06/12 03:31:15;;;;;;;14.00;6.90;;;;;;;13.87;100.00;100316.84;104779;1276;60419;-77
2022/06/12 03:34:32;;;;;;;15.40;7.50;;;;;;;13.88;100.00;100315.36;104823;1276;72431;-79
2022/06/12 03:37:33;;;;;;;13.00;6.90;;;;;;;13.90;100.00;100312.33;104900;1274;66200;-75
2022/06/12 03:40:29;;;;;;;12.30;6.40;;;;;;;13.93;100.00;100316.48;105140;1271;73472;-75
2022/06/12 03:43:33;;;;;;;13.00;6.60;;;;;;;13.96;100.00;100315.17;105310;1268;59668;-76
2022/06/12 03:47:15;;;;;;;14.00;6.80;;;;;;;13.99;100.00;100319.59;105352;1271;59558;-76
2022/06/12 03:50:26;;;;;;;14.80;6.80;;;;;;;14.04;100.00;100317.39;105176;1271;72309;-77
2022/06/12 03:53:35;;;;;;;15.70;5.90;;;;;;;14.08;100.00;100321.30;104974;1273;68490;-76
2022/06/12 03:59:56;;;;;;;14.20;6.50;;;;;;;14.19;100.00;100327.48;105068;1271;59991;-74
2022/06/12 04:02:49;;;;;;;12.40;5.10;;;;;;;14.25;100.00;100324.61;105221;1271;59585;-74
2022/06/12 04:05:40;;;;;;;11.30;4.80;;;;;;;14.33;100.00;100325.51;104907;1271;73207;-75
2022/06/12 04:09:00;;;;;;;17.70;5.40;;;;;;;14.39;99.52;100321.20;105582;1267;69593;-76
2022/06/12 04:11:57;;;;;;;16.10;4.60;;;;;;;14.48;99.06;100322.41;106485;1267;72636;-73
2022/06/12 04:15:29;;;;;;;13.10;4.10;;;;;;;14.57;97.98;100321.40;107077;1268;59400;-76
2022/06/12 04:18:18;;;;;;;12.70;4.10;;;;;;;14.69;96.21;100317.51;107689;1267;59261;-75
2022/06/12 04:21:16;;;;;;;11.10;3.80;;;;;;;14.79;95.01;100316.97;107867;1267;71948;-74
2022/06/12 04:24:16;;;;;;;11.90;3.70;;;;;;;14.94;94.15;100315.76;106963;1265;67879;-74
2022/06/12 04:27:12;;;;;;;13.50;4.00;;;;;;;15.15;93.00;100311.88;106856;1270;73389;-74
2022/06/12 04:30:32;;;;;;;13.40;3.90;;;;;;;15.42;91.17;100315.41;105662;1271;59609;-76
2022/06/12 04:34:10;;;;;;;16.00;3.80;;;;;;;15.75;88.27;100313.04;105407;1270;60382;-75
2022/06/12 04:37:00;;;;;;;12.60;3.80;;;;;;;16.15;86.69;100314.21;105581;1267;73244;-72
2022/06/12 04:39:49;;;;;;;12.60;3.90;;;;;;;16.55;83.88;100309.98;105069;1271;67820;-75
2022/06/12 04:42:36;;;;;;;13.80;3.20;;;;;;;16.99;81.39;100314.95;105110;1271;71802;-77
2022/06/12 04:45:23;;;;;;;12.00;3.30;;;;;;;17.52;80.75;100315.79;105301;1271;59533;-75
2022/06/12 04:48:19;;;;;;;11.90;3.30;;;;;;;18.04;77.31;100314.20;104964;1271;60041;-76
2022/06/12 04:51:09;;;;;;;11.00;2.80;;;;;;;18.72;74.30;100305.92;104874;1271;72282;-74
2022/06/12 04:53:57;;;;;;;11.60;3.20;;;;;;;19.32;71.59;100306.27;105063;1270;66305;-75
2022/06/12 04:56:44;;;;;;;10.20;2.80;;;;;;;19.97;68.43;100303.48;105185;1270;72739;-76
2022/06/12 04:59:34;;;;;;;9.40;2.70;;;;;;;20.61;65.34;100300.30;105328;1266;59684;-74
2022/06/12 05:02:23;;;;;;;10.20;2.50;;;;;;;21.23;60.19;100302.21;105620;1268;60449;-76
2022/06/12 05:05:13;;;;;;;9.30;2.50;;;;;;;21.70;58.40;100306.45;105533;1267;73921;-76
2022/06/12 05:08:00;;;;;;;10.80;2.40;;;;;;;22.32;57.14;100297.63;105511;1267;67903;-76
2022/06/12 05:10:47;;;;;;;9.10;2.30;;;;;;;22.93;53.61;100289.52;105619;1265;71401;-77
2022/06/12 05:13:34;;;;;;;11.70;2.40;;;;;;;23.49;52.52;100289.06;105971;1265;59791;-78
2022/06/12 05:16:42;;;;;;;10.40;2.30;;;;;;;23.89;49.70;100285.71;105207;1265;60591;-76
2022/06/12 05:19:37;;;;;;;11.30;2.20;;;;;;;24.29;47.84;100290.90;105228;1265;326144;-75
2022/06/12 05:22:25;;;;;;;9.90;2.20;;;;;;;24.84;46.49;100290.41;105180;1265;66998;-76
2022/06/12 05:25:13;;;;;;;10.50;2.30;;;;;;;25.63;44.70;100286.55;105421;1265;71404;-76
2022/06/12 05:28:03;;;;;;;9.20;2.20;;;;;;;26.27;42.14;100291.38;105358;1265;59885;-77
2022/06/12 05:30:51;;;;;;;9.50;2.10;;;;;;;27.04;41.58;100286.02;105415;1265;61907;-77
2022/06/12 05:33:39;;;;;;;11.00;2.50;;;;;;;27.76;38.74;100280.91;105579;1265;71922;-77
2022/06/12 05:36:26;;;;;;;10.50;2.50;;;;;;;28.57;37.06;100278.50;105438;1265;66222;-75
2022/06/12 05:39:14;;;;;;;9.70;2.10;;;;;;;29.42;35.73;100269.05;105366;1265;72092;-75
2022/06/12 05:42:01;;;;;;;10.10;2.30;;;;;;;29.95;33.91;100269.72;105399;1265;59623;-78
2022/06/12 05:44:48;;;;;;;10.00;2.10;;;;;;;30.43;32.56;100264.35;105569;1265;61894;-79
2022/06/12 05:47:42;;;;;;;9.10;2.00;;;;;;;30.93;31.39;100265.95;105202;1265;72100;-75
2022/06/12 05:50:34;;;;;;;9.50;2.60;;;;;;;31.30;31.11;100262.27;105352;1265;67555;-71
2022/06/12 05:53:23;;;;;;;10.20;2.70;;;;;;;31.63;29.88;100261.63;105065;1268;74766;-73
2022/06/12 05:56:17;;;;;;;10.50;3.10;;;;;;;31.62;28.83;100258.17;105333;1265;59861;-70
2022/06/12 05:59:04;;;;;;;9.90;1.80;;;;;;;31.91;29.16;100265.04;105337;1265;59588;-74
2022/06/12 06:01:51;;;;;;;9.20;2.20;;;;;;;32.17;27.29;100266.61;105320;1264;73174;-73
2022/06/12 06:04:43;;;;;;;13.40;5.50;;;;;;;32.05;27.09;100268.73;105271;1265;70048;-72
2022/06/12 06:07:30;;;;;;;10.60;2.60;;;;;;;32.22;27.24;100270.18;105501;1265;74458;-74
2022/06/12 06:10:23;;;;;;;11.30;2.20;;;;;;;32.51;26.92;100274.77;105426;1265;59661;-73
2022/06/12 06:13:11;;;;;;;7.30;1.70;;;;;;;32.69;25.99;100276.20;105516;1265;60713;-71
2022/06/12 06:15:57;;;;;;;8.30;1.60;;;;;;;33.16;25.69;100277.46;105454;1265;74760;-70
2022/06/12 06:18:44;;;;;;;8.40;1.70;;;;;;;33.85;25.50;100277.62;105324;1265;69130;-71
2022/06/12 06:21:31;;;;;;;8.70;2.30;;;;;;;34.35;24.47;100281.89;105513;1263;71575;-70
2022/06/12 06:24:18;;;;;;;7.40;1.60;;;;;;;34.44;23.65;100283.56;105475;1264;59835;-72
2022/06/12 06:27:05;;;;;;;7.90;1.90;;;;;;;34.56;23.53;100281.55;105340;1265;61320;-71
2022/06/12 06:29:52;;;;;;;7.80;1.60;;;;;;;34.70;23.70;100281.23;105460;1265;71715;-74
2022/06/12 06:32:40;;;;;;;9.80;2.10;;;;;;;34.96;22.50;100276.84;105528;1265;69651;-73
2022/06/12 06:35:28;;;;;;;12.10;1.50;;;;;;;34.72;22.33;100279.35;105393;1265;74198;-77
2022/06/12 06:38:16;;;;;;;8.80;1.60;;;;;;;34.68;22.65;100279.19;105408;1265;59688;-74
2022/06/12 06:41:04;;;;;;;10.30;1.90;;;;;;;34.40;22.61;100279.70;105334;1268;60596;-74
2022/06/12 06:46:58;;;;;;;9.30;1.50;;;;;;;34.72;21.86;100280.95;105588;1265;68127;-75
2022/06/12 06:49:45;;;;;;;8.70;1.90;;;;;;;35.14;21.87;100282.79;105539;1265;71410;-75
2022/06/12 06:52:32;;;;;;;7.90;1.50;;;;;;;35.40;21.34;100284.93;105445;1265;59764;-74
2022/06/12 06:55:19;;;;;;;8.70;2.00;;;;;;;35.59;21.79;100276.70;105528;1265;59950;-75
2022/06/12 06:58:14;;;;;;;9.60;1.80;;;;;;;35.71;20.01;100274.77;105555;1265;73354;-76
2022/06/12 07:01:04;;;;;;;7.50;1.60;;;;;;;35.58;19.42;100281.39;105388;1265;66604;-76
2022/06/12 07:03:53;;;;;;;9.30;1.70;;;;;;;35.43;19.84;100283.88;105638;1265;72868;-77
2022/06/12 07:06:40;;;;;;;7.70;1.40;;;;;;;35.41;19.39;100279.51;105570;1265;59644;-76
2022/06/12 07:09:27;;;;;;;8.50;1.50;;;;;;;35.35;18.90;100274.09;105418;1268;60703;-76
2022/06/12 07:12:14;;;;;;;6.40;1.10;;;;;;;35.68;19.09;100265.15;105701;1265;73903;-73
2022/06/12 07:15:01;;;;;;;8.70;1.70;;;;;;;35.38;18.47;100272.98;105352;1265;68527;-78
2022/06/12 07:17:50;;;;;;;10.20;1.70;;;;;;;35.47;18.14;100268.81;105311;1267;73727;-78
2022/06/12 07:20:42;;;;;;;9.40;1.70;;;;;;;35.72;18.78;100271.51;105406;1267;59755;-79
2022/06/12 07:23:34;;;;;;;8.60;1.30;;;;;;;35.40;18.20;100273.48;105347;1268;59846;-76
2022/06/12 07:26:30;;;;;;;8.30;1.40;;;;;;;35.34;18.39;100268.83;105342;1268;71802;-73
2022/06/12 07:29:21;;;;;;;6.90;1.40;;;;;;;35.33;18.68;100271.16;105285;1267;68049;-73
2022/06/12 07:32:11;;;;;;;7.70;1.70;;;;;;;35.60;18.78;100265.06;105283;1267;74326;-75
2022/06/12 07:34:57;;;;;;;7.60;1.50;;;;;;;35.78;18.66;100264.27;105202;1268;59679;-71
2022/06/12 07:37:44;;;;;;;7.40;1.20;;;;;;;35.95;18.29;100267.71;105353;1268;59541;-76
2022/06/12 07:40:41;;;;;;;6.40;1.30;;;;;;;35.89;18.61;100266.76;105353;1266;71864;-76
2022/06/12 07:43:33;;;;;;;8.50;1.50;;;;;;;35.71;19.19;100261.48;105432;1268;67860;-76
2022/06/12 07:46:20;;;;;;;8.20;1.50;;;;;;;35.79;19.04;100261.95;105285;1268;71338;-73
2022/06/12 07:49:07;;;;;;;7.10;1.50;;;;;;;35.83;19.11;100266.88;105340;1267;59682;-73
2022/06/12 07:51:56;;;;;;;8.30;1.50;;;;;;;35.87;19.27;100271.02;105204;1265;59652;-71
2022/06/12 07:54:43;;;;;;;8.60;1.70;;;;;;;35.63;18.72;100271.75;105600;1265;73665;-71
2022/06/12 07:57:32;;;;;;;7.80;1.30;;;;;;;35.27;19.02;100275.75;105561;1265;68145;-71
2022/06/12 08:00:19;;;;;;;6.90;1.40;;;;;;;35.36;19.09;100274.36;105164;1265;73752;-72
2022/06/12 08:03:07;;;;;;;6.90;1.40;;;;;;;35.72;19.31;100268.23;105301;1265;59636;-71
2022/06/12 08:05:54;;;;;;;7.30;1.60;;;;;;;35.94;18.96;100268.98;105514;1265;60548;-71
2022/06/12 08:08:42;;;;;;;8.00;1.30;;;;;;;36.02;18.60;100269.96;105656;1265;73214;-73
2022/06/12 08:11:29;;;;;;;8.40;1.80;;;;;;;35.95;18.59;100269.05;105573;1265;69450;-71
2022/06/12 08:14:20;;;;;;;9.10;1.50;;;;;;;35.74;18.27;100266.73;105209;1265;73065;-73
2022/06/12 08:17:07;;;;;;;6.80;1.20;;;;;;;35.40;19.04;100269.66;105340;1265;59571;-72
2022/06/12 08:23:29;;;;;;;7.90;1.40;;;;;;;34.52;19.60;100275.91;105709;1268;73200;-73
2022/06/12 08:26:29;;;;;;;7.50;1.50;;;;;;;34.14;20.36;100271.77;105654;1268;69478;-73
2022/06/12 08:29:16;;;;;;;7.00;1.40;;;;;;;34.13;19.97;100275.13;105474;1268;72812;-75
2022/06/12 08:32:16;;;;;;;6.90;1.30;;;;;;;33.79;20.57;100272.30;105642;1265;59758;-72
2022/06/12 08:35:13;;;;;;;7.60;1.40;;;;;;;34.10;20.54;100270.77;105509;1266;59748;-73
2022/06/12 08:38:01;;;;;;;7.90;1.50;;;;;;;34.27;19.94;100271.70;105556;1268;71936;-75
2022/06/12 08:41:20;;;;;;;7.20;1.20;;;;;;;34.21;20.30;100277.41;105357;1265;70082;-74
2022/06/12 08:44:40;;;;;;;7.60;1.30;;;;;;;34.52;19.85;100281.77;105392;1268;74726;-76
2022/06/12 08:48:11;;;;;;;7.40;1.50;;;;;;;34.65;19.55;100274.98;105718;1265;59862;-72
2022/06/12 08:51:31;;;;;;;9.00;1.50;;;;;;;34.50;19.62;100277.33;105215;1273;61997;-73
2022/06/12 08:54:35;;;;;;;6.80;1.20;;;;;;;34.22;19.32;100276.04;104968;1273;73215;-74
2022/06/12 08:57:33;;;;;;;8.40;1.40;;;;;;;34.30;19.64;100278.49;105218;1273;67995;-76
2022/06/12 09:00:27;;;;;;;7.00;1.30;;;;;;;34.40;19.52;100278.65;105157;1273;72888;-74
2022/06/12 09:03:19;;;;;;;6.90;1.20;;;;;;;34.39;19.53;100277.05;105001;1273;59537;-74
2022/06/12 09:06:25;;;;;;;6.70;1.40;;;;;;;34.25;19.56;100276.11;104941;1273;60531;-76
2022/06/12 09:09:22;;;;;;;6.00;1.20;;;;;;;34.11;19.58;100274.46;105319;1273;75277;-75
2022/06/12 09:12:25;;;;;;;8.00;1.30;;;;;;;34.05;19.79;100277.25;105097;1273;69334;-75
2022/06/12 09:15:41;;;;;;;6.80;1.40;;;;;;;34.33;19.49;100275.70;105087;1273;72731;-72
2022/06/12 09:18:47;;;;;;;6.70;1.20;;;;;;;34.04;19.62;100267.38;105246;1273;59932;-72
2022/06/12 09:21:42;;;;;;;6.50;1.10;;;;;;;34.20;19.32;100261.95;105019;1273;60365;-75
2022/06/12 09:25:04;;;;;;;8.00;1.50;;;;;;;34.36;18.82;100263.51;104950;1273;73192;-74
2022/06/12 09:28:17;;;;;;;7.30;1.30;;;;;;;34.31;18.12;100262.95;105426;1268;69688;-72
2022/06/12 09:31:30;;;;;;;7.30;1.40;;;;;;;34.14;18.37;100257.30;105709;1265;74207;-75
2022/06/12 09:34:20;;;;;;;7.60;1.40;;;;;;;34.03;18.77;100249.43;105495;1265;59712;-75
2022/06/12 09:38:49;;;;;;;5.90;1.20;;;;;;;34.08;18.66;100247.29;105716;1265;62006;-74
2022/06/12 09:41:44;;;;;;;8.10;1.40;;;;;;;33.79;19.39;100236.77;104755;1279;73231;-72
2022/06/12 09:45:01;;;;;;;7.40;1.30;;;;;;;33.94;19.20;100239.25;104800;1279;69718;-76
2022/06/12 09:48:07;;;;;;;7.70;1.50;;;;;;;33.65;18.67;100236.13;103963;1284;72225;-75
2022/06/12 09:51:55;;;;;;;7.30;1.30;;;;;;;33.72;19.50;100241.36;104311;1285;59835;-77
2022/06/12 09:54:59;;;;;;;7.70;1.40;;;;;;;34.22;18.60;100245.39;104025;1284;61504;-73
2022/06/12 09:58:20;;;;;;;6.80;1.60;;;;;;;33.55;19.77;100243.14;104053;1285;74712;-73
2022/06/12 10:01:19;;;;;;;7.50;1.70;;;;;;;32.52;20.38;100245.27;103770;1285;68061;-71
2022/06/12 10:04:09;;;;;;;9.00;1.70;;;;;;;31.78;21.35;100245.83;104024;1285;72690;-73
2022/06/12 10:07:31;;;;;;;7.60;1.40;;;;;;;32.12;21.37;100236.10;104011;1285;59809;-73
2022/06/12 10:10:55;;;;;;;9.20;2.20;;;;;;;32.76;21.04;100239.40;103309;1293;60522;-74
2022/06/12 10:14:08;;;;;;;7.20;1.30;;;;;;;33.18;19.98;100228.30;103960;1287;74214;-73
2022/06/12 10:17:02;;;;;;;6.90;1.30;;;;;;;33.04;20.01;100226.48;104860;1279;69697;-71
2022/06/12 10:20:02;;;;;;;7.10;1.30;;;;;;;33.11;20.44;100222.48;104528;1279;71411;-72
2022/06/12 10:22:53;;;;;;;8.00;1.40;;;;;;;33.23;20.26;100219.58;104377;1279;59817;-72
2022/06/12 10:25:49;;;;;;;8.60;1.40;;;;;;;33.21;20.38;100219.83;104843;1273;62462;-72
2022/06/12 10:28:39;;;;;;;8.30;1.60;;;;;;;33.33;20.22;100223.83;105363;1273;73625;-73
2022/06/12 10:31:26;;;;;;;7.70;1.50;;;;;;;33.69;19.67;100226.05;105069;1273;69587;-73
2022/06/12 10:34:23;;;;;;;9.00;1.40;;;;;;;34.12;19.52;100232.55;105088;1273;73649;-75
2022/06/12 10:37:19;;;;;;;8.10;1.40;;;;;;;33.90;19.44;100228.30;105115;1273;59565;-73
2022/06/12 10:40:20;;;;;;;8.20;1.60;;;;;;;33.18;20.18;100232.91;105064;1273;61145;-74
2022/06/12 10:43:22;;;;;;;7.80;1.60;;;;;;;32.54;21.10;100230.75;105317;1273;74205;-74
2022/06/12 10:46:23;;;;;;;8.00;1.40;;;;;;;31.94;20.89;100228.08;106315;1265;68299;-74
2022/06/12 10:49:22;;;;;;;10.00;1.80;;;;;;;31.31;22.17;100224.45;106765;1264;74321;-72
2022/06/12 10:52:22;;;;;;;8.40;1.60;;;;;;;31.49;22.03;100211.17;106680;1268;59947;-75
2022/06/12 10:55:19;;;;;;;7.10;1.30;;;;;;;32.25;21.00;100197.59;105944;1267;59717;-75
2022/06/12 10:58:23;;;;;;;9.70;1.70;;;;;;;33.02;20.66;100201.45;105711;1268;73359;-74
2022/06/12 11:01:20;;;;;;;7.20;1.30;;;;;;;33.36;20.03;100201.23;105788;1267;69832;-73
2022/06/12 11:04:34;;;;;;;6.70;1.50;;;;;;;33.29;19.97;100205.01;106032;1267;74538;-72
2022/06/12 11:07:33;;;;;;;7.40;1.20;;;;;;;33.05;20.33;100203.96;107919;1267;59674;-73
2022/06/12 11:10:31;;;;;;;7.40;1.40;;;;;;;32.47;20.71;100199.80;107922;1266;60391;-72
2022/06/12 11:14:05;;;;;;;8.60;1.40;;;;;;;32.22;21.32;100203.31;107540;1267;73161;-72
2022/06/12 11:17:41;;;;;;;8.80;1.30;;;;;;;31.93;21.80;100200.16;105822;1267;69049;-73
2022/06/12 11:20:49;;;;;;;9.30;1.40;;;;;;;31.07;22.14;100197.06;105736;1267;72565;-73
2022/06/12 11:24:01;;;;;;;9.50;2.30;;;;;;;30.82;22.63;100196.27;105742;1268;59653;-73
2022/06/12 11:27:08;;;;;;;9.50;1.40;;;;;;;30.98;23.05;100193.27;105712;1267;59300;-71
2022/06/12 11:30:33;;;;;;;7.50;1.70;;;;;;;31.02;22.96;100191.98;105516;1267;72125;-72
2022/06/12 11:33:51;;;;;;;9.10;2.00;;;;;;;30.66;22.91;100192.06;106504;1267;68769;-75
2022/06/12 11:37:19;;;;;;;9.40;2.30;;;;;;;29.98;23.90;100196.09;105298;1273;73422;-72
2022/06/12 11:40:18;;;;;;;9.60;2.10;;;;;;;29.57;25.18;100193.95;104930;1274;59979;-74
2022/06/12 11:43:32;;;;;;;9.20;1.50;;;;;;;29.13;25.66;100184.91;105151;1273;59620;-74
2022/06/12 11:46:48;;;;;;;9.10;1.60;;;;;;;28.76;26.21;100185.48;105274;1273;74731;-73
2022/06/12 11:50:41;;;;;;;8.10;1.60;;;;;;;28.43;26.86;100182.56;104984;1273;68463;-72
2022/06/12 11:54:01;;;;;;;8.60;1.50;;;;;;;28.27;27.30;100174.65;104512;1279;71549;-70
2022/06/12 11:57:20;;;;;;;7.00;1.80;;;;;;;27.71;27.96;100172.02;104897;1279;60255;-74
2022/06/12 12:00:22;;;;;;;9.00;1.70;;;;;;;27.10;28.72;100174.84;104546;1279;60347;-73
2022/06/12 12:03:42;;;;;;;7.90;1.90;;;;;;;26.62;29.54;100177.75;104432;1279;74261;-72
2022/06/12 12:06:56;;;;;;;8.70;2.00;;;;;;;26.21;30.42;100177.84;104799;1278;69524;-73
2022/06/12 12:10:18;;;;;;;10.40;2.00;;;;;;;25.92;31.38;100186.70;104549;1279;72735;-76
2022/06/12 12:13:12;;;;;;;11.00;2.00;;;;;;;25.90;31.37;100183.60;104578;1275;59783;-75
2022/06/12 12:16:07;;;;;;;8.70;1.80;;;;;;;25.80;31.78;100182.59;104900;1273;59643;-73
2022/06/12 12:19:05;;;;;;;9.80;1.80;;;;;;;25.69;31.85;100180.80;105288;1273;74503;-73
2022/06/12 12:21:59;;;;;;;10.30;1.80;;;;;;;25.33;32.20;100184.34;105377;1273;66554;-74
2022/06/12 12:24:55;;;;;;;8.50;1.80;;;;;;;25.00;32.77;100187.87;105561;1273;72777;-74
2022/06/12 12:28:01;;;;;;;8.10;1.80;;;;;;;24.78;33.61;100186.42;105203;1273;59612;-72
2022/06/12 12:30:52;;;;;;;10.50;2.10;;;;;;;24.66;34.10;100179.32;105424;1267;61030;-71
2022/06/12 12:33:43;;;;;;;9.50;1.80;;;;;;;24.66;34.16;100178.39;105183;1268;72289;-75
2022/06/12 12:43:00;;;;;;;10.80;2.10;;;;;;;24.50;35.30;100178.39;105844;1265;59698;-73
2022/06/12 12:46:06;;;;;;;9.30;1.80;;;;;;;24.70;34.76;100180.44;105514;1265;62132;-76
2022/06/12 12:48:54;;;;;;;9.00;1.80;;;;;;;24.80;34.68;100175.34;105138;1267;72710;-77
2022/06/12 12:51:41;;;;;;;11.60;2.10;;;;;;;24.79;34.80;100174.63;105483;1267;67899;-74
2022/06/12 12:54:28;;;;;;;10.50;2.00;;;;;;;24.77;34.77;100176.77;105540;1268;74000;-76
2022/06/12 12:57:36;;;;;;;12.70;2.20;;;;;;;24.70;35.55;100176.48;105660;1268;59771;-75
2022/06/12 13:00:35;;;;;;;7.90;1.80;;;;;;;24.55;34.69;100164.43;106074;1267;59518;-76
2022/06/12 13:03:48;;;;;;;9.90;1.80;;;;;;;24.28;34.85;100162.77;105858;1268;73225;-79
2022/06/12 13:07:51;;;;;;;8.10;2.00;;;;;;;24.04;35.37;100160.38;105976;1268;67951;-78
2022/06/12 13:10:56;;;;;;;11.70;2.20;;;;;;;23.74;36.28;100173.86;104975;1276;74409;-75
2022/06/12 13:13:43;;;;;;;9.60;1.80;;;;;;;23.58;36.13;100174.91;105306;1274;59766;-71
2022/06/12 13:17:19;;;;;;;12.10;3.40;;;;;;;23.50;36.15;100166.66;105726;1274;60977;-77
2022/06/12 13:20:21;;;;;;;11.20;2.70;;;;;;;23.38;36.67;100165.05;106330;1274;73751;-77
2022/06/12 13:23:42;;;;;;;9.40;2.30;;;;;;;23.54;36.85;100164.20;106044;1274;67889;-76
2022/06/12 13:26:33;;;;;;;10.50;2.50;;;;;;;23.72;36.54;100158.64;105511;1274;73347;-76
2022/06/12 13:29:24;;;;;;;10.10;2.30;;;;;;;23.91;36.59;100151.07;105320;1274;59745;-71
2022/06/12 13:32:34;;;;;;;10.90;2.00;;;;;;;24.08;36.27;100152.78;104773;1273;60005;-72
2022/06/12 13:35:53;;;;;;;10.30;1.90;;;;;;;24.37;36.17;100147.97;105326;1274;72539;-78
2022/06/12 13:39:01;;;;;;;9.10;1.80;;;;;;;24.66;35.78;100144.61;104889;1276;68221;-77
2022/06/12 13:42:18;;;;;;;9.50;2.00;;;;;;;24.82;34.81;100138.48;104612;1276;74362;-76
2022/06/12 13:45:19;;;;;;;12.00;2.30;;;;;;;24.92;35.21;100146.18;104836;1276;59562;-75
2022/06/12 13:48:29;;;;;;;10.40;2.40;;;;;;;24.89;35.04;100142.63;105154;1271;61223;-79
2022/06/12 13:51:32;;;;;;;9.70;1.80;;;;;;;24.90;34.86;100143.75;105843;1271;74914;-78
2022/06/12 13:54:27;;;;;;;9.30;1.90;;;;;;;24.80;34.48;100136.69;105613;1271;69667;-81
2022/06/12 13:57:30;;;;;;;10.60;1.80;;;;;;;24.49;35.23;100131.57;106409;1270;73238;-76
2022/06/12 14:00:36;;;;;;;9.80;2.20;;;;;;;24.39;35.53;100130.11;105460;1271;60154;-77
2022/06/12 14:03:26;;;;;;;10.40;2.40;;;;;;;24.58;36.02;100128.86;105413;1271;60786;-78
2022/06/12 14:06:17;;;;;;;9.00;2.00;;;;;;;24.77;35.18;100127.90;105383;1271;73310;-76